Terminal Aerodrome Forecast
Issued by NWS

Current Version | Previous Version | Text Only | Print | Product List | Glossary On
Versions: 1 2 3 4 5 6 7 8 9 10 11 12 13 14 15 16 17
000
FTUS43 KEAX 270520
TAFSTJ
TAF
KSTJ 270520Z 2706/2806 VRB02KT P6SM FEW050
     FM271600 12009KT P6SM BKN030
     FM272100 08010KT 5SM -TSRA BKN035 OVC050CB
     FM280000 05007KT P6SM VCTS BKN040 OVC050CB
     FM280300 36009KT P6SM OVC030=

USA.gov is the U.S. government's official web portal to all federal, state and local government web resources and services.